sensor_id;sensor_type;location;lat;lon;timestamp;temperature;humidity
19928;DHT22;10126;50.876;4.470;2022-09-27T00:01:41;10.70;99.90
19928;DHT22;10126;50.876;4.470;2022-09-27T00:03:43;10.80;99.90
19928;DHT22;10126;50.876;4.470;2022-09-27T00:05:44;10.80;99.90
19928;DHT22;10126;50.876;4.470;2022-09-27T00:07:47;10.80;99.90
19928;DHT22;10126;50.876;4.470;2022-09-27T00:09:48;10.70;99.90
19928;DHT22;10126;50.876;4.470;2022-09-27T00:11:48;10.80;99.90
19928;DHT22;10126;50.876;4.470;2022-09-27T00:13:50;10.70;99.90
19928;DHT22;10126;50.876;4.470;2022-09-27T00:16:01;10.70;99.90
19928;DHT22;10126;50.876;4.470;2022-09-27T00:18:04;10.70;99.90
19928;DHT22;10126;50.876;4.470;2022-09-27T00:20:05;10.70;99.90
19928;DHT22;10126;50.876;4.470;2022-09-27T00:22:06;10.70;99.90
19928;DHT22;10126;50.876;4.470;2022-09-27T00:24:11;10.60;99.90
19928;DHT22;10126;50.876;4.470;2022-09-27T00:26:12;10.50;99.90
19928;DHT22;10126;50.876;4.470;2022-09-27T00:28:13;10.70;99.90
19928;DHT22;10126;50.876;4.470;2022-09-27T00:30:14;10.70;99.90
19928;DHT22;10126;50.876;4.470;2022-09-27T00:32:14;10.60;99.90
19928;DHT22;10126;50.876;4.470;2022-09-27T00:34:20;10.60;99.90
19928;DHT22;10126;50.876;4.470;2022-09-27T00:36:23;10.50;99.90
19928;DHT22;10126;50.876;4.470;2022-09-27T00:38:25;10.40;99.90
19928;DHT22;10126;50.876;4.470;2022-09-27T00:40:25;10.40;99.90
19928;DHT22;10126;50.876;4.470;2022-09-27T00:42:26;10.40;99.90
19928;DHT22;10126;50.876;4.470;2022-09-27T00:48:36;10.40;99.90
19928;DHT22;10126;50.876;4.470;2022-09-27T00:50:39;10.30;99.90
19928;DHT22;10126;50.876;4.470;2022-09-27T00:54:58;10.40;99.90
19928;DHT22;10126;50.876;4.470;2022-09-27T00:57:02;10.40;99.90
19928;DHT22;10126;50.876;4.470;2022-09-27T00:59:28;10.40;99.90
19928;DHT22;10126;50.876;4.470;2022-09-27T01:01:27;10.30;99.90
19928;DHT22;10126;50.876;4.470;2022-09-27T01:03:47;10.20;99.90
19928;DHT22;10126;50.876;4.470;2022-09-27T01:05:51;10.20;99.90
19928;DHT22;10126;50.876;4.470;2022-09-27T01:07:52;10.30;99.90
19928;DHT22;10126;50.876;4.470;2022-09-27T01:09:59;10.30;99.90
19928;DHT22;10126;50.876;4.470;2022-09-27T01:12:22;10.40;99.90
19928;DHT22;10126;50.876;4.470;2022-09-27T01:16:56;10.50;99.90
19928;DHT22;10126;50.876;4.470;2022-09-27T01:29:06;10.30;99.90
19928;DHT22;10126;50.876;4.470;2022-09-27T01:31:30;10.30;99.90
19928;DHT22;10126;50.876;4.470;2022-09-27T01:38:22;10.20;99.90
19928;DHT22;10126;50.876;4.470;2022-09-27T01:42:49;10.30;99.90
19928;DHT22;10126;50.876;4.470;2022-09-27T01:47:16;10.40;99.90
19928;DHT22;10126;50.876;4.470;2022-09-27T01:49:26;10.50;99.90
19928;DHT22;10126;50.876;4.470;2022-09-27T01:51:36;10.50;99.90
19928;DHT22;10126;50.876;4.470;2022-09-27T01:53:41;10.50;99.90
19928;DHT22;10126;50.876;4.470;2022-09-27T01:55:44;10.30;99.90
19928;DHT22;10126;50.876;4.470;2022-09-27T01:58:03;10.30;99.90
19928;DHT22;10126;50.876;4.470;2022-09-27T02:00:10;10.30;99.90
19928;DHT22;10126;50.876;4.470;2022-09-27T02:02:14;10.30;99.90
19928;DHT22;10126;50.876;4.470;2022-09-27T02:04:23;10.30;99.90
19928;DHT22;10126;50.876;4.470;2022-09-27T02:06:32;10.40;99.90
19928;DHT22;10126;50.876;4.470;2022-09-27T02:11:03;10.30;99.90
19928;DHT22;10126;50.876;4.470;2022-09-27T02:13:21;10.30;99.90
19928;DHT22;10126;50.876;4.470;2022-09-27T02:15:24;10.30;99.90
19928;DHT22;10126;50.876;4.470;2022-09-27T02:17:57;10.40;99.90
19928;DHT22;10126;50.876;4.470;2022-09-27T02:24:47;10.40;99.90
19928;DHT22;10126;50.876;4.470;2022-09-27T02:26:58;10.50;99.90
19928;DHT22;10126;50.876;4.470;2022-09-27T02:29:08;10.50;99.90
19928;DHT22;10126;50.876;4.470;2022-09-27T02:31:10;10.30;99.90
19928;DHT22;10126;50.876;4.470;2022-09-27T02:33:11;10.40;99.90
19928;DHT22;10126;50.876;4.470;2022-09-27T02:35:18;10.30;99.90
19928;DHT22;10126;50.876;4.470;2022-09-27T02:37:20;10.20;99.90
19928;DHT22;10126;50.876;4.470;2022-09-27T02:39:22;10.20;99.90
19928;DHT22;10126;50.876;4.470;2022-09-27T02:41:23;10.20;99.90
19928;DHT22;10126;50.876;4.470;2022-09-27T02:43:27;10.20;99.90
19928;DHT22;10126;50.876;4.470;2022-09-27T02:48:11;10.30;99.90
19928;DHT22;10126;50.876;4.470;2022-09-27T02:50:28;10.30;99.90
19928;DHT22;10126;50.876;4.470;2022-09-27T03:06:23;10.10;99.90
19928;DHT22;10126;50.876;4.470;2022-09-27T03:08:23;10.20;99.90
19928;DHT22;10126;50.876;4.470;2022-09-27T03:10:26;10.10;99.90
19928;DHT22;10126;50.876;4.470;2022-09-27T03:12:27;10.10;99.90
19928;DHT22;10126;50.876;4.470;2022-09-27T03:14:28;10.20;99.90
19928;DHT22;10126;50.876;4.470;2022-09-27T03:16:28;10.20;99.90
19928;DHT22;10126;50.876;4.470;2022-09-27T03:18:29;10.30;99.90
19928;DHT22;10126;50.876;4.470;2022-09-27T03:20:29;10.40;99.90
19928;DHT22;10126;50.876;4.470;2022-09-27T03:22:30;10.20;99.90
19928;DHT22;10126;50.876;4.470;2022-09-27T03:24:31;10.10;99.90
19928;DHT22;10126;50.876;4.470;2022-09-27T03:26:32;10.20;99.90
19928;DHT22;10126;50.876;4.470;2022-09-27T03:28:33;10.30;99.90
19928;DHT22;10126;50.876;4.470;2022-09-27T03:30:35;10.40;99.90
19928;DHT22;10126;50.876;4.470;2022-09-27T03:32:35;10.40;99.90
19928;DHT22;10126;50.876;4.470;2022-09-27T03:34:36;10.30;99.90
19928;DHT22;10126;50.876;4.470;2022-09-27T03:36:37;10.40;99.90
19928;DHT22;10126;50.876;4.470;2022-09-27T03:38:37;10.30;99.90
19928;DHT22;10126;50.876;4.470;2022-09-27T03:40:38;10.50;99.90
19928;DHT22;10126;50.876;4.470;2022-09-27T03:42:39;10.50;99.90
19928;DHT22;10126;50.876;4.470;2022-09-27T03:44:39;10.60;99.90
19928;DHT22;10126;50.876;4.470;2022-09-27T03:46:40;10.60;99.90
19928;DHT22;10126;50.876;4.470;2022-09-27T03:48:40;10.60;99.90
19928;DHT22;10126;50.876;4.470;2022-09-27T03:50:42;10.60;99.90
19928;DHT22;10126;50.876;4.470;2022-09-27T03:52:43;10.50;99.90
19928;DHT22;10126;50.876;4.470;2022-09-27T03:54:44;10.50;99.90
19928;DHT22;10126;50.876;4.470;2022-09-27T03:56:44;10.50;99.90
19928;DHT22;10126;50.876;4.470;2022-09-27T03:58:45;10.60;99.90
19928;DHT22;10126;50.876;4.470;2022-09-27T04:00:46;10.60;99.90
19928;DHT22;10126;50.876;4.470;2022-09-27T04:02:46;10.60;99.90
19928;DHT22;10126;50.876;4.470;2022-09-27T04:04:48;10.60;99.90
19928;DHT22;10126;50.876;4.470;2022-09-27T04:06:49;10.60;99.90
19928;DHT22;10126;50.876;4.470;2022-09-27T04:08:49;10.60;99.90
19928;DHT22;10126;50.876;4.470;2022-09-27T04:10:50;10.60;99.90
19928;DHT22;10126;50.876;4.470;2022-09-27T04:12:51;10.60;99.90
19928;DHT22;10126;50.876;4.470;2022-09-27T04:14:51;10.40;99.90
19928;DHT22;10126;50.876;4.470;2022-09-27T04:16:52;10.30;99.90
19928;DHT22;10126;50.876;4.470;2022-09-27T04:18:52;10.30;99.90
19928;DHT22;10126;50.876;4.470;2022-09-27T04:20:53;10.40;99.90
19928;DHT22;10126;50.876;4.470;2022-09-27T04:22:54;10.50;99.90
19928;DHT22;10126;50.876;4.470;2022-09-27T04:24:54;10.60;99.90
19928;DHT22;10126;50.876;4.470;2022-09-27T04:26:55;10.60;99.90
19928;DHT22;10126;50.876;4.470;2022-09-27T04:28:56;10.60;99.90
19928;DHT22;10126;50.876;4.470;2022-09-27T04:30:57;10.50;99.90
19928;DHT22;10126;50.876;4.470;2022-09-27T04:32:58;10.60;99.90
19928;DHT22;10126;50.876;4.470;2022-09-27T04:34:58;10.40;99.90
19928;DHT22;10126;50.876;4.470;2022-09-27T04:37:17;10.50;99.90
19928;DHT22;10126;50.876;4.470;2022-09-27T04:39:18;10.60;99.90
19928;DHT22;10126;50.876;4.470;2022-09-27T04:41:19;10.60;99.90
19928;DHT22;10126;50.876;4.470;2022-09-27T04:43:21;10.50;99.90
19928;DHT22;10126;50.876;4.470;2022-09-27T04:45:21;10.60;99.90
19928;DHT22;10126;50.876;4.470;2022-09-27T04:47:22;10.70;99.90
19928;DHT22;10126;50.876;4.470;2022-09-27T04:49:23;10.70;99.90
19928;DHT22;10126;50.876;4.470;2022-09-27T04:51:23;10.70;99.90
19928;DHT22;10126;50.876;4.470;2022-09-27T04:53:24;10.70;99.90
19928;DHT22;10126;50.876;4.470;2022-09-27T04:55:25;10.60;99.90
19928;DHT22;10126;50.876;4.470;2022-09-27T04:57:26;10.50;99.90
19928;DHT22;10126;50.876;4.470;2022-09-27T04:59:27;10.50;99.90
19928;DHT22;10126;50.876;4.470;2022-09-27T05:01:28;10.60;99.90
19928;DHT22;10126;50.876;4.470;2022-09-27T05:03:30;10.70;99.90
19928;DHT22;10126;50.876;4.470;2022-09-27T05:05:31;10.70;99.90
19928;DHT22;10126;50.876;4.470;2022-09-27T05:07:33;10.70;99.90
19928;DHT22;10126;50.876;4.470;2022-09-27T05:09:34;10.80;99.90
19928;DHT22;10126;50.876;4.470;2022-09-27T05:11:35;10.70;99.90
19928;DHT22;10126;50.876;4.470;2022-09-27T05:13:37;10.70;99.90
19928;DHT22;10126;50.876;4.470;2022-09-27T05:15:38;10.60;99.90
19928;DHT22;10126;50.876;4.470;2022-09-27T05:17:39;10.40;99.90
19928;DHT22;10126;50.876;4.470;2022-09-27T05:19:39;10.30;99.90
19928;DHT22;10126;50.876;4.470;2022-09-27T05:21:40;10.40;99.90
19928;DHT22;10126;50.876;4.470;2022-09-27T05:23:40;10.30;99.90
19928;DHT22;10126;50.876;4.470;2022-09-27T05:25:41;10.50;99.90
19928;DHT22;10126;50.876;4.470;2022-09-27T05:27:42;10.40;99.90
19928;DHT22;10126;50.876;4.470;2022-09-27T05:29:43;10.30;99.90
19928;DHT22;10126;50.876;4.470;2022-09-27T05:31:44;10.30;99.90
19928;DHT22;10126;50.876;4.470;2022-09-27T05:33:46;10.30;99.90
19928;DHT22;10126;50.876;4.470;2022-09-27T05:35:54;10.30;99.90
19928;DHT22;10126;50.876;4.470;2022-09-27T05:37:57;10.30;99.90
19928;DHT22;10126;50.876;4.470;2022-09-27T05:39:58;10.40;99.90
19928;DHT22;10126;50.876;4.470;2022-09-27T05:41:59;10.50;99.90
19928;DHT22;10126;50.876;4.470;2022-09-27T05:44:02;10.50;99.90
19928;DHT22;10126;50.876;4.470;2022-09-27T05:46:02;10.50;99.90
19928;DHT22;10126;50.876;4.470;2022-09-27T05:48:04;10.50;99.90
19928;DHT22;10126;50.876;4.470;2022-09-27T05:50:05;10.60;99.90
19928;DHT22;10126;50.876;4.470;2022-09-27T05:52:08;10.60;99.90
19928;DHT22;10126;50.876;4.470;2022-09-27T05:54:08;10.50;99.90
19928;DHT22;10126;50.876;4.470;2022-09-27T05:56:09;10.70;99.90
19928;DHT22;10126;50.876;4.470;2022-09-27T05:58:10;10.70;99.90
19928;DHT22;10126;50.876;4.470;2022-09-27T06:00:15;10.80;99.90
19928;DHT22;10126;50.876;4.470;2022-09-27T06:02:17;10.90;99.90
19928;DHT22;10126;50.876;4.470;2022-09-27T06:04:18;11.00;99.90
19928;DHT22;10126;50.876;4.470;2022-09-27T06:06:20;11.10;99.90
19928;DHT22;10126;50.876;4.470;2022-09-27T06:08:22;11.10;99.90
19928;DHT22;10126;50.876;4.470;2022-09-27T06:10:23;11.00;99.90
19928;DHT22;10126;50.876;4.470;2022-09-27T06:12:24;10.90;99.90
19928;DHT22;10126;50.876;4.470;2022-09-27T06:14:25;10.90;99.90
19928;DHT22;10126;50.876;4.470;2022-09-27T06:16:26;11.00;99.90
19928;DHT22;10126;50.876;4.470;2022-09-27T06:18:27;11.00;99.90
19928;DHT22;10126;50.876;4.470;2022-09-27T06:20:27;11.00;99.90
19928;DHT22;10126;50.876;4.470;2022-09-27T06:22:28;11.00;99.90
19928;DHT22;10126;50.876;4.470;2022-09-27T06:24:29;11.00;99.90
19928;DHT22;10126;50.876;4.470;2022-09-27T06:26:29;11.10;99.90
19928;DHT22;10126;50.876;4.470;2022-09-27T06:28:31;11.40;99.90
19928;DHT22;10126;50.876;4.470;2022-09-27T06:30:32;11.20;99.90
19928;DHT22;10126;50.876;4.470;2022-09-27T06:32:32;11.20;99.90
19928;DHT22;10126;50.876;4.470;2022-09-27T06:34:33;11.30;99.90
19928;DHT22;10126;50.876;4.470;2022-09-27T06:36:33;11.20;99.90
19928;DHT22;10126;50.876;4.470;2022-09-27T06:38:34;11.20;99.90
19928;DHT22;10126;50.876;4.470;2022-09-27T06:40:36;11.20;99.90
19928;DHT22;10126;50.876;4.470;2022-09-27T06:42:36;11.30;99.90
19928;DHT22;10126;50.876;4.470;2022-09-27T06:44:39;11.10;99.90
19928;DHT22;10126;50.876;4.470;2022-09-27T06:46:40;11.10;99.90
19928;DHT22;10126;50.876;4.470;2022-09-27T06:48:42;11.20;99.90
19928;DHT22;10126;50.876;4.470;2022-09-27T06:50:44;10.80;99.90
19928;DHT22;10126;50.876;4.470;2022-09-27T06:52:48;11.00;99.90
19928;DHT22;10126;50.876;4.470;2022-09-27T06:54:49;11.10;99.90
19928;DHT22;10126;50.876;4.470;2022-09-27T06:56:50;11.00;99.90
19928;DHT22;10126;50.876;4.470;2022-09-27T06:58:50;11.00;99.90
19928;DHT22;10126;50.876;4.470;2022-09-27T07:01:09;10.90;99.90
19928;DHT22;10126;50.876;4.470;2022-09-27T07:03:11;10.80;99.90
19928;DHT22;10126;50.876;4.470;2022-09-27T07:05:11;10.70;99.90
19928;DHT22;10126;50.876;4.470;2022-09-27T07:07:12;10.70;99.90
19928;DHT22;10126;50.876;4.470;2022-09-27T07:09:13;10.80;99.90
19928;DHT22;10126;50.876;4.470;2022-09-27T07:11:14;10.90;99.90
19928;DHT22;10126;50.876;4.470;2022-09-27T07:13:14;11.10;99.90
19928;DHT22;10126;50.876;4.470;2022-09-27T07:15:15;11.20;99.90
19928;DHT22;10126;50.876;4.470;2022-09-27T07:17:16;11.50;99.90
19928;DHT22;10126;50.876;4.470;2022-09-27T07:19:16;11.60;99.90
19928;DHT22;10126;50.876;4.470;2022-09-27T07:21:17;11.80;99.90
19928;DHT22;10126;50.876;4.470;2022-09-27T07:23:18;11.60;99.90
19928;DHT22;10126;50.876;4.470;2022-09-27T07:25:19;11.60;99.90
19928;DHT22;10126;50.876;4.470;2022-09-27T07:27:20;11.60;99.90
19928;DHT22;10126;50.876;4.470;2022-09-27T07:29:21;11.70;99.90
19928;DHT22;10126;50.876;4.470;2022-09-27T07:31:22;11.70;99.90
19928;DHT22;10126;50.876;4.470;2022-09-27T07:33:23;11.60;99.90
19928;DHT22;10126;50.876;4.470;2022-09-27T07:35:25;11.70;99.90
19928;DHT22;10126;50.876;4.470;2022-09-27T07:37:26;11.60;99.90
19928;DHT22;10126;50.876;4.470;2022-09-27T07:39:27;11.70;99.90
19928;DHT22;10126;50.876;4.470;2022-09-27T07:41:28;11.70;99.90
19928;DHT22;10126;50.876;4.470;2022-09-27T07:43:29;11.80;99.90
19928;DHT22;10126;50.876;4.470;2022-09-27T07:45:30;11.90;99.90
19928;DHT22;10126;50.876;4.470;2022-09-27T07:47:32;12.10;99.90
19928;DHT22;10126;50.876;4.470;2022-09-27T07:49:32;12.30;99.90
19928;DHT22;10126;50.876;4.470;2022-09-27T07:51:33;12.40;99.90
19928;DHT22;10126;50.876;4.470;2022-09-27T07:53:34;12.30;99.90
19928;DHT22;10126;50.876;4.470;2022-09-27T07:55:34;12.30;99.90
19928;DHT22;10126;50.876;4.470;2022-09-27T07:57:36;12.30;99.90
19928;DHT22;10126;50.876;4.470;2022-09-27T07:59:36;12.30;99.90
19928;DHT22;10126;50.876;4.470;2022-09-27T08:01:37;12.20;99.90
19928;DHT22;10126;50.876;4.470;2022-09-27T08:03:38;12.20;99.90
19928;DHT22;10126;50.876;4.470;2022-09-27T08:05:40;12.10;99.90
19928;DHT22;10126;50.876;4.470;2022-09-27T08:07:40;11.80;99.90
19928;DHT22;10126;50.876;4.470;2022-09-27T08:09:41;11.90;99.90
19928;DHT22;10126;50.876;4.470;2022-09-27T08:11:42;11.60;99.90
19928;DHT22;10126;50.876;4.470;2022-09-27T08:13:44;11.60;99.90
19928;DHT22;10126;50.876;4.470;2022-09-27T08:15:45;11.60;99.90
19928;DHT22;10126;50.876;4.470;2022-09-27T08:17:46;11.50;99.90
19928;DHT22;10126;50.876;4.470;2022-09-27T08:19:46;11.50;99.90
19928;DHT22;10126;50.876;4.470;2022-09-27T08:21:51;11.50;99.90
19928;DHT22;10126;50.876;4.470;2022-09-27T08:23:52;11.60;99.90
19928;DHT22;10126;50.876;4.470;2022-09-27T08:25:54;11.60;99.90
19928;DHT22;10126;50.876;4.470;2022-09-27T08:27:58;11.60;99.90
19928;DHT22;10126;50.876;4.470;2022-09-27T08:29:59;11.30;99.90
19928;DHT22;10126;50.876;4.470;2022-09-27T08:32:00;11.40;99.90
19928;DHT22;10126;50.876;4.470;2022-09-27T08:34:01;11.30;99.90
19928;DHT22;10126;50.876;4.470;2022-09-27T08:36:02;11.30;99.90
19928;DHT22;10126;50.876;4.470;2022-09-27T08:38:03;11.30;99.90
19928;DHT22;10126;50.876;4.470;2022-09-27T08:40:06;11.20;99.90
19928;DHT22;10126;50.876;4.470;2022-09-27T08:44:49;11.20;99.90
19928;DHT22;10126;50.876;4.470;2022-09-27T08:47:14;11.20;99.90
19928;DHT22;10126;50.876;4.470;2022-09-27T08:49:38;11.20;99.90
19928;DHT22;10126;50.876;4.470;2022-09-27T08:51:41;11.20;99.90
19928;DHT22;10126;50.876;4.470;2022-09-27T08:53:56;11.20;99.90
19928;DHT22;10126;50.876;4.470;2022-09-27T08:55:58;11.10;99.90
19928;DHT22;10126;50.876;4.470;2022-09-27T08:57:59;11.10;99.90
19928;DHT22;10126;50.876;4.470;2022-09-27T09:00:11;10.80;99.90
19928;DHT22;10126;50.876;4.470;2022-09-27T09:02:18;10.80;99.90
19928;DHT22;10126;50.876;4.470;2022-09-27T09:04:34;10.80;99.90
19928;DHT22;10126;50.876;4.470;2022-09-27T09:09:27;10.70;99.90
19928;DHT22;10126;50.876;4.470;2022-09-27T09:11:45;10.50;99.90
19928;DHT22;10126;50.876;4.470;2022-09-27T09:23:52;10.80;99.90
19928;DHT22;10126;50.876;4.470;2022-09-27T09:30:24;10.90;99.90
19928;DHT22;10126;50.876;4.470;2022-09-27T09:32:40;10.90;99.90
19928;DHT22;10126;50.876;4.470;2022-09-27T09:34:53;10.90;99.90
19928;DHT22;10126;50.876;4.470;2022-09-27T09:39:11;10.90;99.90
19928;DHT22;10126;50.876;4.470;2022-09-27T09:41:32;11.10;99.90
19928;DHT22;10126;50.876;4.470;2022-09-27T09:46:02;11.60;99.90
19928;DHT22;10126;50.876;4.470;2022-09-27T09:50:49;12.70;99.90
19928;DHT22;10126;50.876;4.470;2022-09-27T09:53:19;13.60;99.90
19928;DHT22;10126;50.876;4.470;2022-09-27T09:55:23;14.00;99.90
19928;DHT22;10126;50.876;4.470;2022-09-27T09:57:39;14.20;99.90
19928;DHT22;10126;50.876;4.470;2022-09-27T10:00:01;14.30;99.90
19928;DHT22;10126;50.876;4.470;2022-09-27T10:02:24;14.20;99.90
19928;DHT22;10126;50.876;4.470;2022-09-27T10:04:27;14.20;99.90
19928;DHT22;10126;50.876;4.470;2022-09-27T10:06:29;13.70;99.90
19928;DHT22;10126;50.876;4.470;2022-09-27T10:08:30;13.80;99.90
19928;DHT22;10126;50.876;4.470;2022-09-27T10:10:33;13.90;99.90
19928;DHT22;10126;50.876;4.470;2022-09-27T10:12:34;13.90;99.90
19928;DHT22;10126;50.876;4.470;2022-09-27T10:14:36;13.90;99.90
19928;DHT22;10126;50.876;4.470;2022-09-27T10:16:36;14.10;99.90
19928;DHT22;10126;50.876;4.470;2022-09-27T10:18:39;13.90;99.90
19928;DHT22;10126;50.876;4.470;2022-09-27T10:20:44;14.10;99.90
19928;DHT22;10126;50.876;4.470;2022-09-27T10:22:48;14.00;99.90
19928;DHT22;10126;50.876;4.470;2022-09-27T10:24:59;14.10;99.90
19928;DHT22;10126;50.876;4.470;2022-09-27T10:27:01;14.10;99.90
19928;DHT22;10126;50.876;4.470;2022-09-27T10:31:19;14.50;99.90
19928;DHT22;10126;50.876;4.470;2022-09-27T10:33:20;14.90;99.90
19928;DHT22;10126;50.876;4.470;2022-09-27T10:37:29;15.00;99.90
19928;DHT22;10126;50.876;4.470;2022-09-27T10:39:29;14.80;99.90
19928;DHT22;10126;50.876;4.470;2022-09-27T10:41:38;14.90;99.90
19928;DHT22;10126;50.876;4.470;2022-09-27T10:43:40;14.90;99.90
19928;DHT22;10126;50.876;4.470;2022-09-27T10:45:41;14.90;99.90
19928;DHT22;10126;50.876;4.470;2022-09-27T10:47:42;14.70;99.90
19928;DHT22;10126;50.876;4.470;2022-09-27T10:49:43;14.50;99.90
19928;DHT22;10126;50.876;4.470;2022-09-27T10:51:45;14.60;99.90
19928;DHT22;10126;50.876;4.470;2022-09-27T10:53:48;14.70;99.90
19928;DHT22;10126;50.876;4.470;2022-09-27T10:55:50;14.70;99.90
19928;DHT22;10126;50.876;4.470;2022-09-27T10:57:53;14.70;99.90
19928;DHT22;10126;50.876;4.470;2022-09-27T11:00:04;14.50;99.90
19928;DHT22;10126;50.876;4.470;2022-09-27T11:02:30;14.30;99.90
19928;DHT22;10126;50.876;4.470;2022-09-27T11:04:34;14.40;99.90
19928;DHT22;10126;50.876;4.470;2022-09-27T11:06:35;14.20;99.90
19928;DHT22;10126;50.876;4.470;2022-09-27T11:08:37;14.20;99.90
19928;DHT22;10126;50.876;4.470;2022-09-27T11:10:38;14.40;99.90
19928;DHT22;10126;50.876;4.470;2022-09-27T11:12:39;14.20;99.90
19928;DHT22;10126;50.876;4.470;2022-09-27T11:14:41;14.20;99.90
19928;DHT22;10126;50.876;4.470;2022-09-27T11:17:06;14.20;99.90
19928;DHT22;10126;50.876;4.470;2022-09-27T11:19:34;14.40;99.90
19928;DHT22;10126;50.876;4.470;2022-09-27T11:26:35;14.30;99.90
19928;DHT22;10126;50.876;4.470;2022-09-27T11:47:57;13.80;99.90
19928;DHT22;10126;50.876;4.470;2022-09-27T11:52:39;13.90;99.90
19928;DHT22;10126;50.876;4.470;2022-09-27T11:56:59;13.70;99.90
19928;DHT22;10126;50.876;4.470;2022-09-27T11:59:14;14.00;99.90
19928;DHT22;10126;50.876;4.470;2022-09-27T12:06:02;13.90;99.90
19928;DHT22;10126;50.876;4.470;2022-09-27T12:08:21;13.80;99.90
19928;DHT22;10126;50.876;4.470;2022-09-27T12:10:26;13.80;99.90
19928;DHT22;10126;50.876;4.470;2022-09-27T12:12:32;14.00;99.90
19928;DHT22;10126;50.876;4.470;2022-09-27T12:14:56;14.10;99.90
19928;DHT22;10126;50.876;4.470;2022-09-27T12:17:02;14.30;99.90
19928;DHT22;10126;50.876;4.470;2022-09-27T12:19:11;14.30;99.90
19928;DHT22;10126;50.876;4.470;2022-09-27T12:21:15;14.40;99.90
19928;DHT22;10126;50.876;4.470;2022-09-27T12:23:27;14.20;99.90
19928;DHT22;10126;50.876;4.470;2022-09-27T12:25:33;14.50;99.90
19928;DHT22;10126;50.876;4.470;2022-09-27T12:27:44;14.80;99.90
19928;DHT22;10126;50.876;4.470;2022-09-27T12:29:47;15.00;99.90
19928;DHT22;10126;50.876;4.470;2022-09-27T12:36:49;14.90;99.90
19928;DHT22;10126;50.876;4.470;2022-09-27T12:39:22;15.10;99.90
19928;DHT22;10126;50.876;4.470;2022-09-27T12:41:24;15.40;99.90
19928;DHT22;10126;50.876;4.470;2022-09-27T12:43:28;15.10;99.90
19928;DHT22;10126;50.876;4.470;2022-09-27T12:52:37;15.30;99.90
19928;DHT22;10126;50.876;4.470;2022-09-27T12:57:29;15.10;99.90
19928;DHT22;10126;50.876;4.470;2022-09-27T13:04:09;14.80;99.90
19928;DHT22;10126;50.876;4.470;2022-09-27T13:11:14;14.20;99.90
19928;DHT22;10126;50.876;4.470;2022-09-27T13:13:21;14.30;99.90
19928;DHT22;10126;50.876;4.470;2022-09-27T13:15:31;14.70;99.90
19928;DHT22;10126;50.876;4.470;2022-09-27T13:19:44;14.80;99.90
19928;DHT22;10126;50.876;4.470;2022-09-27T13:23:51;15.20;99.90
19928;DHT22;10126;50.876;4.470;2022-09-27T13:27:52;15.10;99.90
19928;DHT22;10126;50.876;4.470;2022-09-27T13:32:24;15.40;99.90
19928;DHT22;10126;50.876;4.470;2022-09-27T13:36:37;15.30;99.90
19928;DHT22;10126;50.876;4.470;2022-09-27T13:38:37;15.30;99.90
19928;DHT22;10126;50.876;4.470;2022-09-27T13:40:39;15.50;99.90
19928;DHT22;10126;50.876;4.470;2022-09-27T13:45:25;15.30;99.90
19928;DHT22;10126;50.876;4.470;2022-09-27T13:47:35;15.20;99.90
19928;DHT22;10126;50.876;4.470;2022-09-27T13:49:39;15.20;99.90
19928;DHT22;10126;50.876;4.470;2022-09-27T13:51:47;15.30;99.90
19928;DHT22;10126;50.876;4.470;2022-09-27T13:54:04;15.50;99.90
19928;DHT22;10126;50.876;4.470;2022-09-27T13:56:05;15.50;99.90
19928;DHT22;10126;50.876;4.470;2022-09-27T13:59:21;15.00;99.90
19928;DHT22;10126;50.876;4.470;2022-09-27T14:01:29;14.80;99.90
19928;DHT22;10126;50.876;4.470;2022-09-27T14:03:37;14.90;99.90
19928;DHT22;10126;50.876;4.470;2022-09-27T14:05:54;14.90;99.90
19928;DHT22;10126;50.876;4.470;2022-09-27T14:07:58;15.30;99.90
19928;DHT22;10126;50.876;4.470;2022-09-27T14:10:00;15.30;99.90
19928;DHT22;10126;50.876;4.470;2022-09-27T14:12:08;15.20;99.90
19928;DHT22;10126;50.876;4.470;2022-09-27T14:14:20;15.30;99.90
19928;DHT22;10126;50.876;4.470;2022-09-27T14:16:22;15.40;99.90
19928;DHT22;10126;50.876;4.470;2022-09-27T14:18:25;15.30;99.90
19928;DHT22;10126;50.876;4.470;2022-09-27T14:20:36;15.40;99.90
19928;DHT22;10126;50.876;4.470;2022-09-27T14:22:39;15.60;99.90
19928;DHT22;10126;50.876;4.470;2022-09-27T14:26:40;15.60;99.90
19928;DHT22;10126;50.876;4.470;2022-09-27T14:28:42;15.50;99.90
19928;DHT22;10126;50.876;4.470;2022-09-27T14:30:42;15.40;99.90
19928;DHT22;10126;50.876;4.470;2022-09-27T14:32:51;15.20;99.90
19928;DHT22;10126;50.876;4.470;2022-09-27T14:37:32;15.30;99.90
19928;DHT22;10126;50.876;4.470;2022-09-27T14:39:34;15.60;99.90
19928;DHT22;10126;50.876;4.470;2022-09-27T14:41:37;15.30;99.90
19928;DHT22;10126;50.876;4.470;2022-09-27T14:43:42;15.40;99.90
19928;DHT22;10126;50.876;4.470;2022-09-27T14:45:44;15.40;99.90
19928;DHT22;10126;50.876;4.470;2022-09-27T14:47:49;15.00;99.90
19928;DHT22;10126;50.876;4.470;2022-09-27T14:49:57;14.90;99.90
19928;DHT22;10126;50.876;4.470;2022-09-27T14:51:59;15.10;99.90
19928;DHT22;10126;50.876;4.470;2022-09-27T14:54:00;15.00;99.90
19928;DHT22;10126;50.876;4.470;2022-09-27T14:56:05;14.90;99.90
19928;DHT22;10126;50.876;4.470;2022-09-27T14:58:13;14.80;99.90
19928;DHT22;10126;50.876;4.470;2022-09-27T15:02:26;14.70;99.90
19928;DHT22;10126;50.876;4.470;2022-09-27T15:04:29;14.60;99.90
19928;DHT22;10126;50.876;4.470;2022-09-27T15:06:32;14.10;99.90
19928;DHT22;10126;50.876;4.470;2022-09-27T15:08:34;13.50;99.90
19928;DHT22;10126;50.876;4.470;2022-09-27T15:10:36;13.10;99.90
19928;DHT22;10126;50.876;4.470;2022-09-27T15:12:38;12.80;99.90
19928;DHT22;10126;50.876;4.470;2022-09-27T15:14:39;12.80;99.90
19928;DHT22;10126;50.876;4.470;2022-09-27T15:16:47;12.60;99.90
19928;DHT22;10126;50.876;4.470;2022-09-27T15:18:57;12.50;99.90
19928;DHT22;10126;50.876;4.470;2022-09-27T15:20:59;12.50;99.90
19928;DHT22;10126;50.876;4.470;2022-09-27T15:23:04;12.40;99.90
19928;DHT22;10126;50.876;4.470;2022-09-27T15:25:17;12.20;99.90
19928;DHT22;10126;50.876;4.470;2022-09-27T15:27:22;12.20;99.90
19928;DHT22;10126;50.876;4.470;2022-09-27T15:29:24;12.20;99.90
19928;DHT22;10126;50.876;4.470;2022-09-27T15:31:34;12.10;99.90
19928;DHT22;10126;50.876;4.470;2022-09-27T15:33:35;12.10;99.90
19928;DHT22;10126;50.876;4.470;2022-09-27T15:35:36;12.00;99.90
19928;DHT22;10126;50.876;4.470;2022-09-27T15:37:38;12.20;99.90
19928;DHT22;10126;50.876;4.470;2022-09-27T15:39:39;12.30;99.90
19928;DHT22;10126;50.876;4.470;2022-09-27T15:42:06;12.50;99.90
19928;DHT22;10126;50.876;4.470;2022-09-27T15:44:38;12.60;99.90
19928;DHT22;10126;50.876;4.470;2022-09-27T15:46:42;12.90;99.90
19928;DHT22;10126;50.876;4.470;2022-09-27T15:48:43;13.00;99.90